sensor_id;sensor_type;location;lat;lon;timestamp;temperature;humidity
23289;DHT22;11813;50.834;4.280;2023-07-20T00:01:13;18.00;99.90
23289;DHT22;11813;50.834;4.280;2023-07-20T00:03:39;17.90;99.90
23289;DHT22;11813;50.834;4.280;2023-07-20T00:06:04;18.00;99.90
23289;DHT22;11813;50.834;4.280;2023-07-20T00:08:30;18.00;99.90
23289;DHT22;11813;50.834;4.280;2023-07-20T00:10:56;18.20;99.90
23289;DHT22;11813;50.834;4.280;2023-07-20T00:13:22;18.20;99.90
23289;DHT22;11813;50.834;4.280;2023-07-20T00:15:48;18.20;99.90
23289;DHT22;11813;50.834;4.280;2023-07-20T00:18:13;18.20;99.90
23289;DHT22;11813;50.834;4.280;2023-07-20T00:20:39;18.30;99.90
23289;DHT22;11813;50.834;4.280;2023-07-20T00:23:05;18.30;99.90
23289;DHT22;11813;50.834;4.280;2023-07-20T00:25:32;18.40;99.90
23289;DHT22;11813;50.834;4.280;2023-07-20T00:27:58;18.40;99.90
23289;DHT22;11813;50.834;4.280;2023-07-20T00:30:24;18.50;99.90
23289;DHT22;11813;50.834;4.280;2023-07-20T00:32:50;18.50;99.90
23289;DHT22;11813;50.834;4.280;2023-07-20T00:35:15;18.50;99.90
23289;DHT22;11813;50.834;4.280;2023-07-20T00:37:41;18.50;99.90
23289;DHT22;11813;50.834;4.280;2023-07-20T00:40:06;18.40;99.90
23289;DHT22;11813;50.834;4.280;2023-07-20T00:42:35;18.40;99.90
23289;DHT22;11813;50.834;4.280;2023-07-20T00:45:01;18.30;99.90
23289;DHT22;11813;50.834;4.280;2023-07-20T00:47:27;18.30;99.90
23289;DHT22;11813;50.834;4.280;2023-07-20T00:49:54;18.30;99.90
23289;DHT22;11813;50.834;4.280;2023-07-20T00:52:21;18.30;99.90
23289;DHT22;11813;50.834;4.280;2023-07-20T00:54:48;18.40;99.90
23289;DHT22;11813;50.834;4.280;2023-07-20T00:57:15;18.40;99.90
23289;DHT22;11813;50.834;4.280;2023-07-20T00:59:41;18.40;99.90
23289;DHT22;11813;50.834;4.280;2023-07-20T01:02:07;18.30;99.90
23289;DHT22;11813;50.834;4.280;2023-07-20T01:04:33;18.40;99.90
23289;DHT22;11813;50.834;4.280;2023-07-20T01:09:42;18.30;99.90
23289;DHT22;11813;50.834;4.280;2023-07-20T01:12:30;18.40;99.90
23289;DHT22;11813;50.834;4.280;2023-07-20T01:14:58;18.30;99.90
23289;DHT22;11813;50.834;4.280;2023-07-20T01:17:24;18.20;99.90
23289;DHT22;11813;50.834;4.280;2023-07-20T01:19:49;18.30;99.90
23289;DHT22;11813;50.834;4.280;2023-07-20T01:33:34;18.40;99.90
23289;DHT22;11813;50.834;4.280;2023-07-20T01:36:01;18.40;99.90
23289;DHT22;11813;50.834;4.280;2023-07-20T01:38:28;18.40;99.90
23289;DHT22;11813;50.834;4.280;2023-07-20T01:40:54;18.40;99.90
23289;DHT22;11813;50.834;4.280;2023-07-20T01:43:21;18.40;99.90
23289;DHT22;11813;50.834;4.280;2023-07-20T01:45:47;18.40;99.90
23289;DHT22;11813;50.834;4.280;2023-07-20T01:48:13;18.40;99.90
23289;DHT22;11813;50.834;4.280;2023-07-20T01:50:38;18.40;99.90
23289;DHT22;11813;50.834;4.280;2023-07-20T01:53:04;18.40;99.90
23289;DHT22;11813;50.834;4.280;2023-07-20T01:55:29;18.30;99.90
23289;DHT22;11813;50.834;4.280;2023-07-20T01:57:55;18.30;99.90
23289;DHT22;11813;50.834;4.280;2023-07-20T02:00:21;18.40;99.90
23289;DHT22;11813;50.834;4.280;2023-07-20T02:02:49;18.30;99.90
23289;DHT22;11813;50.834;4.280;2023-07-20T02:05:15;18.30;99.90
23289;DHT22;11813;50.834;4.280;2023-07-20T02:07:41;18.20;99.90
23289;DHT22;11813;50.834;4.280;2023-07-20T02:10:07;18.20;99.90
23289;DHT22;11813;50.834;4.280;2023-07-20T02:12:33;18.20;99.90
23289;DHT22;11813;50.834;4.280;2023-07-20T02:14:58;18.20;99.90
23289;DHT22;11813;50.834;4.280;2023-07-20T02:17:24;18.10;99.90
23289;DHT22;11813;50.834;4.280;2023-07-20T02:19:53;18.00;99.90
23289;DHT22;11813;50.834;4.280;2023-07-20T02:22:20;18.00;99.90
23289;DHT22;11813;50.834;4.280;2023-07-20T02:24:46;18.00;99.90
23289;DHT22;11813;50.834;4.280;2023-07-20T02:27:12;18.00;99.90
23289;DHT22;11813;50.834;4.280;2023-07-20T02:29:38;18.00;99.90
23289;DHT22;11813;50.834;4.280;2023-07-20T02:32:04;18.00;99.90
23289;DHT22;11813;50.834;4.280;2023-07-20T02:34:30;18.00;99.90
23289;DHT22;11813;50.834;4.280;2023-07-20T02:36:55;18.00;99.90
23289;DHT22;11813;50.834;4.280;2023-07-20T02:39:23;18.00;99.90
23289;DHT22;11813;50.834;4.280;2023-07-20T02:41:49;18.00;99.90
23289;DHT22;11813;50.834;4.280;2023-07-20T02:44:15;18.00;99.90
23289;DHT22;11813;50.834;4.280;2023-07-20T02:46:41;18.00;99.90
23289;DHT22;11813;50.834;4.280;2023-07-20T02:49:06;18.00;99.90
23289;DHT22;11813;50.834;4.280;2023-07-20T02:51:32;18.00;99.90
23289;DHT22;11813;50.834;4.280;2023-07-20T02:53:58;18.00;99.90
23289;DHT22;11813;50.834;4.280;2023-07-20T02:56:24;18.00;99.90
23289;DHT22;11813;50.834;4.280;2023-07-20T02:58:50;17.90;99.90
23289;DHT22;11813;50.834;4.280;2023-07-20T03:01:15;18.00;99.90
23289;DHT22;11813;50.834;4.280;2023-07-20T03:03:42;18.00;99.90
23289;DHT22;11813;50.834;4.280;2023-07-20T03:06:15;18.00;99.90
23289;DHT22;11813;50.834;4.280;2023-07-20T03:08:41;18.00;99.90
23289;DHT22;11813;50.834;4.280;2023-07-20T03:11:07;18.00;99.90
23289;DHT22;11813;50.834;4.280;2023-07-20T03:13:33;18.00;99.90
23289;DHT22;11813;50.834;4.280;2023-07-20T03:15:58;18.00;99.90
23289;DHT22;11813;50.834;4.280;2023-07-20T03:18:24;18.00;99.90
23289;DHT22;11813;50.834;4.280;2023-07-20T03:20:50;18.00;99.90
23289;DHT22;11813;50.834;4.280;2023-07-20T03:23:15;17.90;99.90
23289;DHT22;11813;50.834;4.280;2023-07-20T03:25:42;17.90;99.90
23289;DHT22;11813;50.834;4.280;2023-07-20T03:28:07;17.90;99.90
23289;DHT22;11813;50.834;4.280;2023-07-20T03:30:33;17.80;99.90
23289;DHT22;11813;50.834;4.280;2023-07-20T03:32:59;17.90;99.90
23289;DHT22;11813;50.834;4.280;2023-07-20T03:35:25;17.90;99.90
23289;DHT22;11813;50.834;4.280;2023-07-20T03:37:50;17.90;99.90
23289;DHT22;11813;50.834;4.280;2023-07-20T03:40:16;17.80;99.90
23289;DHT22;11813;50.834;4.280;2023-07-20T03:42:42;17.70;99.90
23289;DHT22;11813;50.834;4.280;2023-07-20T03:45:07;17.60;99.90
23289;DHT22;11813;50.834;4.280;2023-07-20T03:47:33;17.70;99.90
23289;DHT22;11813;50.834;4.280;2023-07-20T03:49:59;17.70;99.90
23289;DHT22;11813;50.834;4.280;2023-07-20T03:52:24;17.60;99.90
23289;DHT22;11813;50.834;4.280;2023-07-20T03:54:50;17.60;99.90
23289;DHT22;11813;50.834;4.280;2023-07-20T03:57:18;17.60;99.90
23289;DHT22;11813;50.834;4.280;2023-07-20T03:59:47;17.60;99.90
23289;DHT22;11813;50.834;4.280;2023-07-20T04:02:13;17.70;99.90
23289;DHT22;11813;50.834;4.280;2023-07-20T04:04:39;17.80;99.90
23289;DHT22;11813;50.834;4.280;2023-07-20T04:07:04;17.80;99.90
23289;DHT22;11813;50.834;4.280;2023-07-20T04:09:31;17.80;99.90
23289;DHT22;11813;50.834;4.280;2023-07-20T04:11:57;17.90;99.90
23289;DHT22;11813;50.834;4.280;2023-07-20T04:14:23;17.90;99.90
23289;DHT22;11813;50.834;4.280;2023-07-20T04:16:48;17.80;99.90
23289;DHT22;11813;50.834;4.280;2023-07-20T04:19:14;17.50;99.90
23289;DHT22;11813;50.834;4.280;2023-07-20T04:21:40;17.40;99.90
23289;DHT22;11813;50.834;4.280;2023-07-20T04:24:06;17.50;99.90
23289;DHT22;11813;50.834;4.280;2023-07-20T04:26:32;17.60;99.90
23289;DHT22;11813;50.834;4.280;2023-07-20T04:28:58;17.70;99.90
23289;DHT22;11813;50.834;4.280;2023-07-20T04:31:24;17.60;99.90
23289;DHT22;11813;50.834;4.280;2023-07-20T04:33:50;17.70;99.90
23289;DHT22;11813;50.834;4.280;2023-07-20T04:36:16;17.70;99.90
23289;DHT22;11813;50.834;4.280;2023-07-20T04:38:45;17.80;99.90
23289;DHT22;11813;50.834;4.280;2023-07-20T04:41:11;17.90;99.90
23289;DHT22;11813;50.834;4.280;2023-07-20T04:43:43;17.90;99.90
23289;DHT22;11813;50.834;4.280;2023-07-20T04:46:10;17.90;99.90
23289;DHT22;11813;50.834;4.280;2023-07-20T04:48:36;17.90;99.90
23289;DHT22;11813;50.834;4.280;2023-07-20T04:51:03;18.00;99.90
23289;DHT22;11813;50.834;4.280;2023-07-20T04:53:29;17.90;99.90
23289;DHT22;11813;50.834;4.280;2023-07-20T04:55:54;18.00;99.90
23289;DHT22;11813;50.834;4.280;2023-07-20T04:58:23;18.00;99.90
23289;DHT22;11813;50.834;4.280;2023-07-20T05:00:49;18.00;99.90
23289;DHT22;11813;50.834;4.280;2023-07-20T05:03:15;18.00;99.90
23289;DHT22;11813;50.834;4.280;2023-07-20T05:05:41;18.10;99.90
23289;DHT22;11813;50.834;4.280;2023-07-20T05:08:07;18.10;99.90
23289;DHT22;11813;50.834;4.280;2023-07-20T05:10:32;18.20;99.90
23289;DHT22;11813;50.834;4.280;2023-07-20T05:12:59;18.20;99.90
23289;DHT22;11813;50.834;4.280;2023-07-20T05:15:24;18.20;99.90
23289;DHT22;11813;50.834;4.280;2023-07-20T05:17:50;18.20;99.90
23289;DHT22;11813;50.834;4.280;2023-07-20T05:20:15;18.10;99.90
23289;DHT22;11813;50.834;4.280;2023-07-20T05:22:42;18.00;99.90
23289;DHT22;11813;50.834;4.280;2023-07-20T05:25:08;18.00;99.90
23289;DHT22;11813;50.834;4.280;2023-07-20T05:27:35;18.00;99.90
23289;DHT22;11813;50.834;4.280;2023-07-20T05:30:01;18.00;99.90
23289;DHT22;11813;50.834;4.280;2023-07-20T05:32:28;18.10;99.90
23289;DHT22;11813;50.834;4.280;2023-07-20T05:34:54;18.10;99.90
23289;DHT22;11813;50.834;4.280;2023-07-20T05:37:20;18.10;99.90
23289;DHT22;11813;50.834;4.280;2023-07-20T05:39:46;18.10;99.90
23289;DHT22;11813;50.834;4.280;2023-07-20T05:42:12;18.30;99.90
23289;DHT22;11813;50.834;4.280;2023-07-20T05:44:37;18.30;99.90
23289;DHT22;11813;50.834;4.280;2023-07-20T05:47:03;18.30;99.90
23289;DHT22;11813;50.834;4.280;2023-07-20T05:49:29;18.30;99.90
23289;DHT22;11813;50.834;4.280;2023-07-20T05:51:57;18.40;99.90
23289;DHT22;11813;50.834;4.280;2023-07-20T05:54:27;18.40;99.90
23289;DHT22;11813;50.834;4.280;2023-07-20T05:56:53;18.40;99.90
23289;DHT22;11813;50.834;4.280;2023-07-20T05:59:19;18.50;99.90
23289;DHT22;11813;50.834;4.280;2023-07-20T06:01:45;18.60;99.90
23289;DHT22;11813;50.834;4.280;2023-07-20T06:04:11;18.60;99.90
23289;DHT22;11813;50.834;4.280;2023-07-20T06:06:36;18.70;99.90
23289;DHT22;11813;50.834;4.280;2023-07-20T06:09:02;18.70;99.90
23289;DHT22;11813;50.834;4.280;2023-07-20T06:11:35;18.80;99.90
23289;DHT22;11813;50.834;4.280;2023-07-20T06:14:00;18.60;99.90
23289;DHT22;11813;50.834;4.280;2023-07-20T06:16:26;18.60;99.90
23289;DHT22;11813;50.834;4.280;2023-07-20T06:18:51;18.60;99.90
23289;DHT22;11813;50.834;4.280;2023-07-20T06:21:17;18.30;99.90
23289;DHT22;11813;50.834;4.280;2023-07-20T06:23:42;18.50;99.90
23289;DHT22;11813;50.834;4.280;2023-07-20T06:26:08;18.50;99.90
23289;DHT22;11813;50.834;4.280;2023-07-20T06:28:34;18.50;99.90
23289;DHT22;11813;50.834;4.280;2023-07-20T06:31:03;18.60;99.90
23289;DHT22;11813;50.834;4.280;2023-07-20T06:33:29;18.60;99.90
23289;DHT22;11813;50.834;4.280;2023-07-20T06:35:55;18.60;99.90
23289;DHT22;11813;50.834;4.280;2023-07-20T06:38:23;18.60;99.90
23289;DHT22;11813;50.834;4.280;2023-07-20T06:40:51;18.70;99.90
23289;DHT22;11813;50.834;4.280;2023-07-20T06:43:17;18.80;99.90
23289;DHT22;11813;50.834;4.280;2023-07-20T06:45:43;18.90;99.90
23289;DHT22;11813;50.834;4.280;2023-07-20T06:48:09;18.90;99.90
23289;DHT22;11813;50.834;4.280;2023-07-20T06:50:34;19.00;99.90
23289;DHT22;11813;50.834;4.280;2023-07-20T06:53:00;19.00;99.90
23289;DHT22;11813;50.834;4.280;2023-07-20T06:55:28;19.10;99.90
23289;DHT22;11813;50.834;4.280;2023-07-20T06:57:54;19.10;99.90
23289;DHT22;11813;50.834;4.280;2023-07-20T07:00:20;19.20;99.90
23289;DHT22;11813;50.834;4.280;2023-07-20T07:02:45;19.30;99.90
23289;DHT22;11813;50.834;4.280;2023-07-20T07:05:11;19.30;99.90
23289;DHT22;11813;50.834;4.280;2023-07-20T07:07:38;19.30;99.90
23289;DHT22;11813;50.834;4.280;2023-07-20T07:10:04;19.40;99.90
23289;DHT22;11813;50.834;4.280;2023-07-20T07:12:30;19.40;99.90
23289;DHT22;11813;50.834;4.280;2023-07-20T07:14:56;19.50;99.90
23289;DHT22;11813;50.834;4.280;2023-07-20T07:17:22;19.60;99.90
23289;DHT22;11813;50.834;4.280;2023-07-20T07:19:47;19.60;99.90
23289;DHT22;11813;50.834;4.280;2023-07-20T07:22:13;19.70;99.90
23289;DHT22;11813;50.834;4.280;2023-07-20T07:24:39;19.90;99.90
23289;DHT22;11813;50.834;4.280;2023-07-20T07:27:08;20.00;99.90
23289;DHT22;11813;50.834;4.280;2023-07-20T07:29:33;19.90;99.90
23289;DHT22;11813;50.834;4.280;2023-07-20T07:31:59;19.80;99.90
23289;DHT22;11813;50.834;4.280;2023-07-20T07:34:25;19.90;99.90
23289;DHT22;11813;50.834;4.280;2023-07-20T07:36:51;19.70;99.90
23289;DHT22;11813;50.834;4.280;2023-07-20T07:39:17;19.60;99.90
23289;DHT22;11813;50.834;4.280;2023-07-20T07:41:42;19.80;99.90
23289;DHT22;11813;50.834;4.280;2023-07-20T07:44:08;19.90;99.90
23289;DHT22;11813;50.834;4.280;2023-07-20T07:46:33;20.00;99.90
23289;DHT22;11813;50.834;4.280;2023-07-20T07:48:59;20.30;99.90
23289;DHT22;11813;50.834;4.280;2023-07-20T07:51:25;20.70;99.90
23289;DHT22;11813;50.834;4.280;2023-07-20T07:53:52;20.90;99.90
23289;DHT22;11813;50.834;4.280;2023-07-20T07:56:18;20.90;99.90
23289;DHT22;11813;50.834;4.280;2023-07-20T07:58:50;21.00;99.90
23289;DHT22;11813;50.834;4.280;2023-07-20T08:01:17;20.90;99.90
23289;DHT22;11813;50.834;4.280;2023-07-20T08:03:44;20.70;99.90
23289;DHT22;11813;50.834;4.280;2023-07-20T08:06:13;20.20;99.90
23289;DHT22;11813;50.834;4.280;2023-07-20T08:08:38;20.30;99.90
23289;DHT22;11813;50.834;4.280;2023-07-20T08:11:04;20.50;99.90
23289;DHT22;11813;50.834;4.280;2023-07-20T08:13:30;20.60;99.90
23289;DHT22;11813;50.834;4.280;2023-07-20T08:15:56;20.70;99.90
23289;DHT22;11813;50.834;4.280;2023-07-20T08:18:22;20.90;99.90
23289;DHT22;11813;50.834;4.280;2023-07-20T08:20:47;21.00;99.90
23289;DHT22;11813;50.834;4.280;2023-07-20T08:23:15;21.10;99.90
23289;DHT22;11813;50.834;4.280;2023-07-20T08:25:40;21.20;99.90
23289;DHT22;11813;50.834;4.280;2023-07-20T08:28:10;21.10;99.90
23289;DHT22;11813;50.834;4.280;2023-07-20T08:30:47;21.10;99.90
23289;DHT22;11813;50.834;4.280;2023-07-20T08:33:14;20.90;99.90
23289;DHT22;11813;50.834;4.280;2023-07-20T08:35:40;21.10;99.90
23289;DHT22;11813;50.834;4.280;2023-07-20T08:38:06;21.20;99.90
23289;DHT22;11813;50.834;4.280;2023-07-20T08:40:33;21.20;99.90
23289;DHT22;11813;50.834;4.280;2023-07-20T08:43:20;21.00;99.90
23289;DHT22;11813;50.834;4.280;2023-07-20T08:45:54;21.00;99.90
23289;DHT22;11813;50.834;4.280;2023-07-20T08:48:21;21.10;99.90
23289;DHT22;11813;50.834;4.280;2023-07-20T08:50:52;21.20;99.90
23289;DHT22;11813;50.834;4.280;2023-07-20T08:53:20;21.30;99.90
23289;DHT22;11813;50.834;4.280;2023-07-20T08:55:48;21.50;99.90
23289;DHT22;11813;50.834;4.280;2023-07-20T08:58:15;21.60;99.90
23289;DHT22;11813;50.834;4.280;2023-07-20T09:00:41;21.80;99.90
23289;DHT22;11813;50.834;4.280;2023-07-20T09:03:07;22.10;99.90
23289;DHT22;11813;50.834;4.280;2023-07-20T09:05:34;22.30;99.90
23289;DHT22;11813;50.834;4.280;2023-07-20T09:08:03;22.30;99.90
23289;DHT22;11813;50.834;4.280;2023-07-20T09:10:33;22.40;99.90
23289;DHT22;11813;50.834;4.280;2023-07-20T09:12:59;22.60;99.90
23289;DHT22;11813;50.834;4.280;2023-07-20T09:15:29;22.60;99.90
23289;DHT22;11813;50.834;4.280;2023-07-20T09:17:55;22.50;99.90
23289;DHT22;11813;50.834;4.280;2023-07-20T09:20:24;22.60;99.90
23289;DHT22;11813;50.834;4.280;2023-07-20T09:22:51;22.90;99.90
23289;DHT22;11813;50.834;4.280;2023-07-20T09:25:27;23.10;99.90
23289;DHT22;11813;50.834;4.280;2023-07-20T09:27:53;23.30;99.90
23289;DHT22;11813;50.834;4.280;2023-07-20T09:30:27;23.30;99.90
23289;DHT22;11813;50.834;4.280;2023-07-20T09:32:53;23.30;99.90
23289;DHT22;11813;50.834;4.280;2023-07-20T09:35:25;23.10;99.90
23289;DHT22;11813;50.834;4.280;2023-07-20T09:37:55;23.20;99.90
23289;DHT22;11813;50.834;4.280;2023-07-20T09:40:29;23.20;99.90
23289;DHT22;11813;50.834;4.280;2023-07-20T09:42:55;23.30;99.90
23289;DHT22;11813;50.834;4.280;2023-07-20T09:45:33;23.50;99.90
23289;DHT22;11813;50.834;4.280;2023-07-20T09:48:08;23.60;99.90
23289;DHT22;11813;50.834;4.280;2023-07-20T09:50:50;23.60;99.90
23289;DHT22;11813;50.834;4.280;2023-07-20T09:53:17;23.90;99.90
23289;DHT22;11813;50.834;4.280;2023-07-20T09:56:01;23.90;99.90
23289;DHT22;11813;50.834;4.280;2023-07-20T09:58:27;23.60;99.90
23289;DHT22;11813;50.834;4.280;2023-07-20T10:00:57;23.80;99.90
23289;DHT22;11813;50.834;4.280;2023-07-20T10:03:28;23.80;99.90
23289;DHT22;11813;50.834;4.280;2023-07-20T10:06:06;23.60;99.90
23289;DHT22;11813;50.834;4.280;2023-07-20T10:08:35;23.60;99.90
23289;DHT22;11813;50.834;4.280;2023-07-20T10:11:06;23.40;99.90
23289;DHT22;11813;50.834;4.280;2023-07-20T10:14:03;23.40;99.90
23289;DHT22;11813;50.834;4.280;2023-07-20T10:16:39;23.70;99.90
23289;DHT22;11813;50.834;4.280;2023-07-20T10:19:42;24.00;99.90
23289;DHT22;11813;50.834;4.280;2023-07-20T10:22:35;24.30;99.90
23289;DHT22;11813;50.834;4.280;2023-07-20T10:25:01;24.10;99.90
23289;DHT22;11813;50.834;4.280;2023-07-20T10:27:30;24.20;99.90
23289;DHT22;11813;50.834;4.280;2023-07-20T10:29:58;24.30;99.90
23289;DHT22;11813;50.834;4.280;2023-07-20T10:32:25;24.20;99.90
23289;DHT22;11813;50.834;4.280;2023-07-20T10:35:06;24.30;99.90
23289;DHT22;11813;50.834;4.280;2023-07-20T10:37:51;24.20;99.90
23289;DHT22;11813;50.834;4.280;2023-07-20T10:40:39;24.10;99.90
23289;DHT22;11813;50.834;4.280;2023-07-20T10:43:09;24.30;99.90
23289;DHT22;11813;50.834;4.280;2023-07-20T10:45:54;24.40;99.90
23289;DHT22;11813;50.834;4.280;2023-07-20T10:48:25;24.30;99.90
23289;DHT22;11813;50.834;4.280;2023-07-20T10:51:44;24.40;99.90
23289;DHT22;11813;50.834;4.280;2023-07-20T11:02:07;24.80;99.90
23289;DHT22;11813;50.834;4.280;2023-07-20T11:04:47;24.70;99.90
23289;DHT22;11813;50.834;4.280;2023-07-20T11:07:36;24.40;99.90
23289;DHT22;11813;50.834;4.280;2023-07-20T11:10:38;24.60;99.90
23289;DHT22;11813;50.834;4.280;2023-07-20T11:13:22;24.60;99.90
23289;DHT22;11813;50.834;4.280;2023-07-20T11:18:39;24.50;99.90
23289;DHT22;11813;50.834;4.280;2023-07-20T11:28:17;24.50;99.90
23289;DHT22;11813;50.834;4.280;2023-07-20T11:30:43;24.60;99.90
23289;DHT22;11813;50.834;4.280;2023-07-20T11:36:33;24.50;99.90
23289;DHT22;11813;50.834;4.280;2023-07-20T11:39:30;24.20;99.90
23289;DHT22;11813;50.834;4.280;2023-07-20T11:42:24;24.40;99.90
23289;DHT22;11813;50.834;4.280;2023-07-20T11:49:28;24.60;99.90
23289;DHT22;11813;50.834;4.280;2023-07-20T11:52:13;24.70;99.90
23289;DHT22;11813;50.834;4.280;2023-07-20T11:54:46;24.90;99.90
23289;DHT22;11813;50.834;4.280;2023-07-20T11:57:32;24.90;99.90
23289;DHT22;11813;50.834;4.280;2023-07-20T12:10:53;24.30;99.90
23289;DHT22;11813;50.834;4.280;2023-07-20T12:20:45;25.10;99.90
23289;DHT22;11813;50.834;4.280;2023-07-20T12:29:59;25.50;99.90
23289;DHT22;11813;50.834;4.280;2023-07-20T12:32:36;25.20;99.90
23289;DHT22;11813;50.834;4.280;2023-07-20T12:38:24;25.30;99.90
23289;DHT22;11813;50.834;4.280;2023-07-20T12:41:50;25.50;99.90
23289;DHT22;11813;50.834;4.280;2023-07-20T12:48:22;25.70;99.90
23289;DHT22;11813;50.834;4.280;2023-07-20T12:50:51;25.50;99.90
23289;DHT22;11813;50.834;4.280;2023-07-20T12:53:17;25.20;99.90
23289;DHT22;11813;50.834;4.280;2023-07-20T12:55:42;25.20;99.90
23289;DHT22;11813;50.834;4.280;2023-07-20T12:58:08;24.90;99.90
23289;DHT22;11813;50.834;4.280;2023-07-20T13:00:34;24.90;99.90
23289;DHT22;11813;50.834;4.280;2023-07-20T13:03:00;24.50;99.90
23289;DHT22;11813;50.834;4.280;2023-07-20T13:05:33;24.60;99.90
23289;DHT22;11813;50.834;4.280;2023-07-20T13:07:58;24.40;99.90
23289;DHT22;11813;50.834;4.280;2023-07-20T13:10:24;24.40;99.90
23289;DHT22;11813;50.834;4.280;2023-07-20T13:12:50;23.80;99.90
23289;DHT22;11813;50.834;4.280;2023-07-20T13:15:17;23.70;99.90
23289;DHT22;11813;50.834;4.280;2023-07-20T13:17:42;23.60;99.90
23289;DHT22;11813;50.834;4.280;2023-07-20T13:20:09;23.60;99.90
23289;DHT22;11813;50.834;4.280;2023-07-20T13:22:36;23.60;99.90
23289;DHT22;11813;50.834;4.280;2023-07-20T13:25:02;23.50;99.90
23289;DHT22;11813;50.834;4.280;2023-07-20T13:27:28;23.50;99.90
23289;DHT22;11813;50.834;4.280;2023-07-20T13:29:54;23.60;99.90
23289;DHT22;11813;50.834;4.280;2023-07-20T13:32:20;23.50;99.90
23289;DHT22;11813;50.834;4.280;2023-07-20T13:34:46;23.40;99.90
23289;DHT22;11813;50.834;4.280;2023-07-20T13:37:12;23.30;99.90
23289;DHT22;11813;50.834;4.280;2023-07-20T13:39:38;23.00;99.90
23289;DHT22;11813;50.834;4.280;2023-07-20T13:42:04;22.90;99.90
23289;DHT22;11813;50.834;4.280;2023-07-20T13:44:33;22.70;99.90
23289;DHT22;11813;50.834;4.280;2023-07-20T13:47:00;22.80;99.90
23289;DHT22;11813;50.834;4.280;2023-07-20T13:49:26;22.90;99.90
23289;DHT22;11813;50.834;4.280;2023-07-20T13:51:51;22.80;99.90
23289;DHT22;11813;50.834;4.280;2023-07-20T13:54:17;22.90;99.90
23289;DHT22;11813;50.834;4.280;2023-07-20T13:56:42;22.80;99.90
23289;DHT22;11813;50.834;4.280;2023-07-20T13:59:08;22.90;99.90
23289;DHT22;11813;50.834;4.280;2023-07-20T14:01:34;22.90;99.90
23289;DHT22;11813;50.834;4.280;2023-07-20T14:04:01;23.00;99.90
23289;DHT22;11813;50.834;4.280;2023-07-20T14:06:30;23.30;99.90
23289;DHT22;11813;50.834;4.280;2023-07-20T14:08:56;23.40;99.90
23289;DHT22;11813;50.834;4.280;2023-07-20T14:11:23;23.60;99.90
23289;DHT22;11813;50.834;4.280;2023-07-20T14:13:49;24.00;99.90
23289;DHT22;11813;50.834;4.280;2023-07-20T14:16:15;24.30;99.90
23289;DHT22;11813;50.834;4.280;2023-07-20T14:18:40;24.50;99.90
23289;DHT22;11813;50.834;4.280;2023-07-20T14:21:06;24.80;99.90
23289;DHT22;11813;50.834;4.280;2023-07-20T14:23:32;25.00;99.90
23289;DHT22;11813;50.834;4.280;2023-07-20T14:25:58;25.30;99.90
23289;DHT22;11813;50.834;4.280;2023-07-20T14:28:24;25.80;99.90
23289;DHT22;11813;50.834;4.280;2023-07-20T14:30:50;26.30;99.90
23289;DHT22;11813;50.834;4.280;2023-07-20T14:33:15;26.70;99.90
23289;DHT22;11813;50.834;4.280;2023-07-20T14:35:41;26.90;99.90
23289;DHT22;11813;50.834;4.280;2023-07-20T14:38:06;27.20;99.90
23289;DHT22;11813;50.834;4.280;2023-07-20T14:40:32;27.30;99.90
23289;DHT22;11813;50.834;4.280;2023-07-20T14:42:58;27.30;99.90
23289;DHT22;11813;50.834;4.280;2023-07-20T14:45:27;27.30;99.90
23289;DHT22;11813;50.834;4.280;2023-07-20T14:47:52;27.20;99.90
23289;DHT22;11813;50.834;4.280;2023-07-20T14:50:22;27.10;99.90
23289;DHT22;11813;50.834;4.280;2023-07-20T14:52:48;26.90;99.90
23289;DHT22;11813;50.834;4.280;2023-07-20T14:55:13;26.70;99.90
23289;DHT22;11813;50.834;4.280;2023-07-20T14:57:39;26.50;99.90
23289;DHT22;11813;50.834;4.280;2023-07-20T15:00:05;26.30;99.90
23289;DHT22;11813;50.834;4.280;2023-07-20T15:02:33;26.30;99.90
23289;DHT22;11813;50.834;4.280;2023-07-20T15:04:59;26.10;99.90
23289;DHT22;11813;50.834;4.280;2023-07-20T15:07:25;26.10;99.90
23289;DHT22;11813;50.834;4.280;2023-07-20T15:09:51;25.90;99.90
23289;DHT22;11813;50.834;4.280;2023-07-20T15:12:16;25.80;99.90
23289;DHT22;11813;50.834;4.280;2023-07-20T15:14:43;25.70;99.90
23289;DHT22;11813;50.834;4.280;2023-07-20T15:17:09;25.60;99.90
23289;DHT22;11813;50.834;4.280;2023-07-20T15:19:35;25.30;99.90
23289;DHT22;11813;50.834;4.280;2023-07-20T15:22:04;25.20;99.90
23289;DHT22;11813;50.834;4.280;2023-07-20T15:24:32;25.10;99.90
23289;DHT22;11813;50.834;4.280;2023-07-20T15:26:58;24.90;99.90
23289;DHT22;11813;50.834;4.280;2023-07-20T15:29:24;24.80;99.90
23289;DHT22;11813;50.834;4.280;2023-07-20T15:31:49;24.70;99.90
23289;DHT22;11813;50.834;4.280;2023-07-20T15:34:15;24.30;99.90
23289;DHT22;11813;50.834;4.280;2023-07-20T15:36:41;24.00;99.90
23289;DHT22;11813;50.834;4.280;2023-07-20T15:39:08;22.80;99.90
23289;DHT22;11813;50.834;4.280;2023-07-20T15:41:33;22.00;99.90
23289;DHT22;11813;50.834;4.280;2023-07-20T15:43:59;21.10;99.90
23289;DHT22;11813;50.834;4.280;2023-07-20T15:46:43;20.40;99.90
23289;DHT22;11813;50.834;4.280;2023-07-20T15:49:08;20.10;99.90
23289;DHT22;11813;50.834;4.280;2023-07-20T15:51:35;19.80;99.90
23289;DHT22;11813;50.834;4.280;2023-07-20T15:54:05;19.60;99.90
23289;DHT22;11813;50.834;4.280;2023-07-20T15:56:34;19.50;99.90
23289;DHT22;11813;50.834;4.280;2023-07-20T15:59:00;19.30;99.90
23289;DHT22;11813;50.834;4.280;2023-07-20T16:01:25;19.20;99.90
23289;DHT22;11813;50.834;4.280;2023-07-20T16:03:51;18.60;99.90
23289;DHT22;11813;50.834;4.280;2023-07-20T16:06:17;18.30;99.90
23289;DHT22;11813;50.834;4.280;2023-07-20T16:08:42;18.30;99.90
23289;DHT22;11813;50.834;4.280;2023-07-20T16:11:08;18.50;99.90
23289;DHT22;11813;50.834;4.280;2023-07-20T16:13:34;18.50;99.90
23289;DHT22;11813;50.834;4.280;2023-07-20T16:16:00;18.60;99.90
23289;DHT22;11813;50.834;4.280;2023-07-20T16:18:25;18.60;99.90
23289;DHT22;11813;50.834;4.280;2023-07-20T16:20:51;18.60;99.90
23289;DHT22;11813;50.834;4.280;2023-07-20T16:23:18;18.70;99.90
23289;DHT22;11813;50.834;4.280;2023-07-20T16:25:46;18.90;99.90
23289;DHT22;11813;50.834;4.280;2023-07-20T16:28:12;19.00;99.90
23289;DHT22;11813;50.834;4.280;2023-07-20T16:30:38;19.00;99.90
23289;DHT22;11813;50.834;4.280;2023-07-20T16:33:03;19.10;99.90
23289;DHT22;11813;50.834;4.280;2023-07-20T16:35:29;19.30;99.90
23289;DHT22;11813;50.834;4.280;2023-07-20T16:37:57;19.30;99.90
23289;DHT22;11813;50.834;4.280;2023-07-20T16:40:24;19.20;99.90
23289;DHT22;11813;50.834;4.280;2023-07-20T16:42:49;19.30;99.90
23289;DHT22;11813;50.834;4.280;2023-07-20T16:45:15;19.40;99.90
23289;DHT22;11813;50.834;4.280;2023-07-20T16:47:41;19.40;99.90